sensor_id;sensor_type;location;lat;lon;timestamp;temperature;humidity
76239;SHT30;65043;48.392;-4.472;2022-11-09T00:01:20;15.49;71.72
76239;SHT30;65043;48.392;-4.472;2022-11-09T00:03:46;15.47;71.22
76239;SHT30;65043;48.392;-4.472;2022-11-09T00:06:12;15.48;70.50
76239;SHT30;65043;48.392;-4.472;2022-11-09T00:08:38;15.45;70.36
76239;SHT30;65043;48.392;-4.472;2022-11-09T00:11:08;15.48;71.02
76239;SHT30;65043;48.392;-4.472;2022-11-09T00:13:38;15.48;71.27
76239;SHT30;65043;48.392;-4.472;2022-11-09T00:16:05;15.51;71.37
76239;SHT30;65043;48.392;-4.472;2022-11-09T00:18:33;15.51;71.65
76239;SHT30;65043;48.392;-4.472;2022-11-09T00:21:22;15.52;71.04
76239;SHT30;65043;48.392;-4.472;2022-11-09T00:23:48;15.48;70.46
76239;SHT30;65043;48.392;-4.472;2022-11-09T00:26:15;15.51;70.16
76239;SHT30;65043;48.392;-4.472;2022-11-09T00:28:41;15.47;70.48
76239;SHT30;65043;48.392;-4.472;2022-11-09T00:31:10;15.48;70.89
76239;SHT30;65043;48.392;-4.472;2022-11-09T00:33:36;15.47;72.22
76239;SHT30;65043;48.392;-4.472;2022-11-09T00:36:06;15.40;69.99
76239;SHT30;65043;48.392;-4.472;2022-11-09T00:38:33;15.35;69.70
76239;SHT30;65043;48.392;-4.472;2022-11-09T00:41:00;15.31;68.67
76239;SHT30;65043;48.392;-4.472;2022-11-09T00:43:26;15.21;68.77
76239;SHT30;65043;48.392;-4.472;2022-11-09T00:45:51;15.18;69.66
76239;SHT30;65043;48.392;-4.472;2022-11-09T00:48:17;15.17;69.61
76239;SHT30;65043;48.392;-4.472;2022-11-09T00:50:48;15.14;70.41
76239;SHT30;65043;48.392;-4.472;2022-11-09T00:53:13;15.10;71.07
76239;SHT30;65043;48.392;-4.472;2022-11-09T00:55:39;15.06;71.20
76239;SHT30;65043;48.392;-4.472;2022-11-09T00:58:04;15.03;71.25
76239;SHT30;65043;48.392;-4.472;2022-11-09T01:00:30;15.06;71.16
76239;SHT30;65043;48.392;-4.472;2022-11-09T01:02:55;15.06;70.68
76239;SHT30;65043;48.392;-4.472;2022-11-09T01:05:21;15.06;70.74
76239;SHT30;65043;48.392;-4.472;2022-11-09T01:07:46;15.07;70.61
76239;SHT30;65043;48.392;-4.472;2022-11-09T01:10:12;15.08;70.70
76239;SHT30;65043;48.392;-4.472;2022-11-09T01:12:37;15.10;70.47
76239;SHT30;65043;48.392;-4.472;2022-11-09T01:15:03;15.12;70.69
76239;SHT30;65043;48.392;-4.472;2022-11-09T01:17:28;15.12;70.96
76239;SHT30;65043;48.392;-4.472;2022-11-09T01:19:53;15.10;70.94
76239;SHT30;65043;48.392;-4.472;2022-11-09T01:22:19;15.12;71.35
76239;SHT30;65043;48.392;-4.472;2022-11-09T01:24:44;15.11;71.43
76239;SHT30;65043;48.392;-4.472;2022-11-09T01:27:10;15.14;71.42
76239;SHT30;65043;48.392;-4.472;2022-11-09T01:29:36;15.16;70.99
76239;SHT30;65043;48.392;-4.472;2022-11-09T01:32:02;15.14;70.94
76239;SHT30;65043;48.392;-4.472;2022-11-09T01:34:31;15.16;70.95
76239;SHT30;65043;48.392;-4.472;2022-11-09T01:36:56;15.14;70.70
76239;SHT30;65043;48.392;-4.472;2022-11-09T01:39:22;15.21;70.40
76239;SHT30;65043;48.392;-4.472;2022-11-09T01:41:47;15.18;70.59
76239;SHT30;65043;48.392;-4.472;2022-11-09T01:44:18;15.18;70.70
76239;SHT30;65043;48.392;-4.472;2022-11-09T01:46:57;15.14;70.69
76239;SHT30;65043;48.392;-4.472;2022-11-09T01:52:06;15.20;70.79
76239;SHT30;65043;48.392;-4.472;2022-11-09T01:54:39;15.20;70.84
76239;SHT30;65043;48.392;-4.472;2022-11-09T01:57:12;15.27;70.88
76239;SHT30;65043;48.392;-4.472;2022-11-09T01:59:43;15.26;70.45
76239;SHT30;65043;48.392;-4.472;2022-11-09T02:02:11;15.23;70.26
76239;SHT30;65043;48.392;-4.472;2022-11-09T02:04:43;15.10;69.40
76239;SHT30;65043;48.392;-4.472;2022-11-09T02:07:10;15.04;69.27
76239;SHT30;65043;48.392;-4.472;2022-11-09T02:12:05;14.89;70.19
76239;SHT30;65043;48.392;-4.472;2022-11-09T02:14:32;14.81;70.61
76239;SHT30;65043;48.392;-4.472;2022-11-09T02:16:59;14.80;70.83
76239;SHT30;65043;48.392;-4.472;2022-11-09T02:19:24;14.77;70.63
76239;SHT30;65043;48.392;-4.472;2022-11-09T02:21:50;14.77;70.80
76239;SHT30;65043;48.392;-4.472;2022-11-09T02:24:17;14.77;70.85
76239;SHT30;65043;48.392;-4.472;2022-11-09T02:26:45;14.73;70.75
76239;SHT30;65043;48.392;-4.472;2022-11-09T02:29:15;14.75;70.91
76239;SHT30;65043;48.392;-4.472;2022-11-09T02:31:46;14.76;70.94
76239;SHT30;65043;48.392;-4.472;2022-11-09T02:34:15;14.75;71.24
76239;SHT30;65043;48.392;-4.472;2022-11-09T02:36:41;14.75;71.29
76239;SHT30;65043;48.392;-4.472;2022-11-09T02:39:08;14.75;71.17
76239;SHT30;65043;48.392;-4.472;2022-11-09T02:41:41;14.73;71.36
76239;SHT30;65043;48.392;-4.472;2022-11-09T02:44:07;14.76;71.38
76239;SHT30;65043;48.392;-4.472;2022-11-09T02:46:35;14.75;71.38
76239;SHT30;65043;48.392;-4.472;2022-11-09T02:49:02;14.76;71.19
76239;SHT30;65043;48.392;-4.472;2022-11-09T02:51:28;14.76;71.19
76239;SHT30;65043;48.392;-4.472;2022-11-09T02:53:53;14.76;71.25
76239;SHT30;65043;48.392;-4.472;2022-11-09T02:56:19;14.76;70.90
76239;SHT30;65043;48.392;-4.472;2022-11-09T02:58:44;14.80;70.81
76239;SHT30;65043;48.392;-4.472;2022-11-09T03:01:10;14.75;70.45
76239;SHT30;65043;48.392;-4.472;2022-11-09T03:03:35;14.72;69.86
76239;SHT30;65043;48.392;-4.472;2022-11-09T03:06:01;14.75;69.40
76239;SHT30;65043;48.392;-4.472;2022-11-09T03:08:26;14.76;69.43
76239;SHT30;65043;48.392;-4.472;2022-11-09T03:10:52;14.73;69.41
76239;SHT30;65043;48.392;-4.472;2022-11-09T03:13:17;14.73;69.51
76239;SHT30;65043;48.392;-4.472;2022-11-09T03:15:43;14.72;69.71
76239;SHT30;65043;48.392;-4.472;2022-11-09T03:18:08;14.66;69.76
76239;SHT30;65043;48.392;-4.472;2022-11-09T03:20:33;14.70;69.85
76239;SHT30;65043;48.392;-4.472;2022-11-09T03:22:59;14.68;70.20
76239;SHT30;65043;48.392;-4.472;2022-11-09T03:25:26;14.70;70.20
76239;SHT30;65043;48.392;-4.472;2022-11-09T03:28:02;14.69;70.41
76239;SHT30;65043;48.392;-4.472;2022-11-09T03:30:28;14.72;70.39
76239;SHT30;65043;48.392;-4.472;2022-11-09T03:33:04;14.69;70.62
76239;SHT30;65043;48.392;-4.472;2022-11-09T03:35:34;14.72;70.66
76239;SHT30;65043;48.392;-4.472;2022-11-09T03:37:59;14.70;70.74
76239;SHT30;65043;48.392;-4.472;2022-11-09T03:40:25;14.70;70.81
76239;SHT30;65043;48.392;-4.472;2022-11-09T03:42:51;14.72;70.98
76239;SHT30;65043;48.392;-4.472;2022-11-09T03:45:16;14.75;71.14
76239;SHT30;65043;48.392;-4.472;2022-11-09T03:47:43;14.73;71.11
76239;SHT30;65043;48.392;-4.472;2022-11-09T03:50:09;14.75;71.05
76239;SHT30;65043;48.392;-4.472;2022-11-09T03:52:35;14.73;70.95
76239;SHT30;65043;48.392;-4.472;2022-11-09T03:55:01;14.73;71.07
76239;SHT30;65043;48.392;-4.472;2022-11-09T03:57:27;14.75;70.89
76239;SHT30;65043;48.392;-4.472;2022-11-09T03:59:52;14.73;70.91
76239;SHT30;65043;48.392;-4.472;2022-11-09T04:02:17;14.76;71.10
76239;SHT30;65043;48.392;-4.472;2022-11-09T04:04:43;14.77;70.92
76239;SHT30;65043;48.392;-4.472;2022-11-09T04:07:12;14.76;70.93
76239;SHT30;65043;48.392;-4.472;2022-11-09T04:09:37;14.75;70.75
76239;SHT30;65043;48.392;-4.472;2022-11-09T04:12:03;14.76;70.80
76239;SHT30;65043;48.392;-4.472;2022-11-09T04:14:29;14.76;70.47
76239;SHT30;65043;48.392;-4.472;2022-11-09T04:16:54;14.76;70.38
76239;SHT30;65043;48.392;-4.472;2022-11-09T04:19:20;14.76;70.22
76239;SHT30;65043;48.392;-4.472;2022-11-09T04:21:45;14.79;70.13
76239;SHT30;65043;48.392;-4.472;2022-11-09T04:24:10;14.79;69.90
76239;SHT30;65043;48.392;-4.472;2022-11-09T04:26:36;14.79;69.84
76239;SHT30;65043;48.392;-4.472;2022-11-09T04:29:01;14.75;69.83
76239;SHT30;65043;48.392;-4.472;2022-11-09T04:31:27;14.76;69.54
76239;SHT30;65043;48.392;-4.472;2022-11-09T04:33:52;14.77;69.81
76239;SHT30;65043;48.392;-4.472;2022-11-09T04:36:17;14.77;69.82
76239;SHT30;65043;48.392;-4.472;2022-11-09T04:38:43;14.76;69.86
76239;SHT30;65043;48.392;-4.472;2022-11-09T04:41:08;14.77;69.98
76239;SHT30;65043;48.392;-4.472;2022-11-09T04:43:34;14.76;70.12
76239;SHT30;65043;48.392;-4.472;2022-11-09T04:46:01;14.73;70.18
76239;SHT30;65043;48.392;-4.472;2022-11-09T04:48:27;14.73;70.21
76239;SHT30;65043;48.392;-4.472;2022-11-09T04:51:01;14.76;70.31
76239;SHT30;65043;48.392;-4.472;2022-11-09T04:53:27;14.77;70.43
76239;SHT30;65043;48.392;-4.472;2022-11-09T04:55:52;14.73;70.47
76239;SHT30;65043;48.392;-4.472;2022-11-09T04:58:18;14.75;70.74
76239;SHT30;65043;48.392;-4.472;2022-11-09T05:00:43;14.75;70.66
76239;SHT30;65043;48.392;-4.472;2022-11-09T05:03:09;14.76;70.50
76239;SHT30;65043;48.392;-4.472;2022-11-09T05:05:36;14.77;70.28
76239;SHT30;65043;48.392;-4.472;2022-11-09T05:08:02;14.73;70.40
76239;SHT30;65043;48.392;-4.472;2022-11-09T05:10:28;14.76;70.45
76239;SHT30;65043;48.392;-4.472;2022-11-09T05:13:03;14.73;70.59
76239;SHT30;65043;48.392;-4.472;2022-11-09T05:15:29;14.75;70.60
76239;SHT30;65043;48.392;-4.472;2022-11-09T05:17:54;14.73;70.77
76239;SHT30;65043;48.392;-4.472;2022-11-09T05:20:20;14.73;70.59
76239;SHT30;65043;48.392;-4.472;2022-11-09T05:22:46;14.69;70.42
76239;SHT30;65043;48.392;-4.472;2022-11-09T05:25:30;14.72;70.25
76239;SHT30;65043;48.392;-4.472;2022-11-09T05:27:55;14.73;69.91
76239;SHT30;65043;48.392;-4.472;2022-11-09T05:30:21;14.69;69.81
76239;SHT30;65043;48.392;-4.472;2022-11-09T05:32:47;14.68;69.70
76239;SHT30;65043;48.392;-4.472;2022-11-09T05:35:12;14.66;70.02
76239;SHT30;65043;48.392;-4.472;2022-11-09T05:37:38;14.68;70.15
76239;SHT30;65043;48.392;-4.472;2022-11-09T05:40:05;14.69;70.30
76239;SHT30;65043;48.392;-4.472;2022-11-09T05:42:31;14.68;70.53
76239;SHT30;65043;48.392;-4.472;2022-11-09T05:44:56;14.66;70.72
76239;SHT30;65043;48.392;-4.472;2022-11-09T05:47:22;14.69;71.01
76239;SHT30;65043;48.392;-4.472;2022-11-09T05:49:47;14.69;71.08
76239;SHT30;65043;48.392;-4.472;2022-11-09T05:52:13;14.63;71.36
76239;SHT30;65043;48.392;-4.472;2022-11-09T05:54:38;14.63;71.38
76239;SHT30;65043;48.392;-4.472;2022-11-09T05:57:04;14.63;71.47
76239;SHT30;65043;48.392;-4.472;2022-11-09T05:59:29;14.62;71.57
76239;SHT30;65043;48.392;-4.472;2022-11-09T06:01:54;14.66;71.44
76239;SHT30;65043;48.392;-4.472;2022-11-09T06:04:20;14.65;71.31
76239;SHT30;65043;48.392;-4.472;2022-11-09T06:06:46;14.66;71.27
76239;SHT30;65043;48.392;-4.472;2022-11-09T06:09:11;14.65;71.38
76239;SHT30;65043;48.392;-4.472;2022-11-09T06:11:36;14.62;71.35
76239;SHT30;65043;48.392;-4.472;2022-11-09T06:14:02;14.60;70.96
76239;SHT30;65043;48.392;-4.472;2022-11-09T06:16:27;14.63;71.01
76239;SHT30;65043;48.392;-4.472;2022-11-09T06:18:53;14.60;70.90
76239;SHT30;65043;48.392;-4.472;2022-11-09T06:21:19;14.59;71.01
76239;SHT30;65043;48.392;-4.472;2022-11-09T06:23:44;14.65;70.77
76239;SHT30;65043;48.392;-4.472;2022-11-09T06:26:10;14.65;70.80
76239;SHT30;65043;48.392;-4.472;2022-11-09T06:28:37;14.66;70.61
76239;SHT30;65043;48.392;-4.472;2022-11-09T06:31:05;14.65;70.57
76239;SHT30;65043;48.392;-4.472;2022-11-09T06:33:32;14.65;70.62
76239;SHT30;65043;48.392;-4.472;2022-11-09T06:35:58;14.66;70.51
76239;SHT30;65043;48.392;-4.472;2022-11-09T06:38:24;14.63;70.51
76239;SHT30;65043;48.392;-4.472;2022-11-09T06:40:54;14.65;70.46
76239;SHT30;65043;48.392;-4.472;2022-11-09T06:43:20;14.62;70.54
76239;SHT30;65043;48.392;-4.472;2022-11-09T06:45:46;14.63;70.68
76239;SHT30;65043;48.392;-4.472;2022-11-09T06:48:11;14.65;70.51
76239;SHT30;65043;48.392;-4.472;2022-11-09T06:50:37;14.59;70.57
76239;SHT30;65043;48.392;-4.472;2022-11-09T06:53:05;14.55;70.93
76239;SHT30;65043;48.392;-4.472;2022-11-09T06:55:33;14.52;71.02
76239;SHT30;65043;48.392;-4.472;2022-11-09T06:57:59;14.52;71.10
76239;SHT30;65043;48.392;-4.472;2022-11-09T07:00:26;14.56;70.80
76239;SHT30;65043;48.392;-4.472;2022-11-09T07:02:51;14.56;70.73
76239;SHT30;65043;48.392;-4.472;2022-11-09T07:05:17;14.53;70.80
76239;SHT30;65043;48.392;-4.472;2022-11-09T07:07:43;14.56;70.72
76239;SHT30;65043;48.392;-4.472;2022-11-09T07:10:09;14.55;70.61
76239;SHT30;65043;48.392;-4.472;2022-11-09T07:12:34;14.58;70.57
76239;SHT30;65043;48.392;-4.472;2022-11-09T07:15:01;14.60;70.53
76239;SHT30;65043;48.392;-4.472;2022-11-09T07:17:29;14.56;70.33
76239;SHT30;65043;48.392;-4.472;2022-11-09T07:19:55;14.58;69.98
76239;SHT30;65043;48.392;-4.472;2022-11-09T07:22:21;14.59;69.87
76239;SHT30;65043;48.392;-4.472;2022-11-09T07:24:46;14.62;69.63
76239;SHT30;65043;48.392;-4.472;2022-11-09T07:27:11;14.60;69.67
76239;SHT30;65043;48.392;-4.472;2022-11-09T07:29:37;14.60;69.50
76239;SHT30;65043;48.392;-4.472;2022-11-09T07:32:02;14.65;69.36
76239;SHT30;65043;48.392;-4.472;2022-11-09T07:34:28;14.65;69.36
76239;SHT30;65043;48.392;-4.472;2022-11-09T07:36:53;14.63;69.17
76239;SHT30;65043;48.392;-4.472;2022-11-09T07:39:19;14.63;68.87
76239;SHT30;65043;48.392;-4.472;2022-11-09T07:41:46;14.65;68.51
76239;SHT30;65043;48.392;-4.472;2022-11-09T07:44:13;14.63;68.34
76239;SHT30;65043;48.392;-4.472;2022-11-09T07:46:46;14.65;68.38
76239;SHT30;65043;48.392;-4.472;2022-11-09T07:49:12;14.63;68.62
76239;SHT30;65043;48.392;-4.472;2022-11-09T07:51:38;14.65;68.22
76239;SHT30;65043;48.392;-4.472;2022-11-09T07:54:04;14.62;67.65
76239;SHT30;65043;48.392;-4.472;2022-11-09T07:56:29;14.66;67.67
76239;SHT30;65043;48.392;-4.472;2022-11-09T07:58:55;14.69;67.83
76239;SHT30;65043;48.392;-4.472;2022-11-09T08:01:21;14.68;67.86
76239;SHT30;65043;48.392;-4.472;2022-11-09T08:03:46;14.68;68.08
76239;SHT30;65043;48.392;-4.472;2022-11-09T08:06:12;14.69;68.63
76239;SHT30;65043;48.392;-4.472;2022-11-09T08:08:37;14.70;68.63
76239;SHT30;65043;48.392;-4.472;2022-11-09T08:11:02;14.70;68.83
76239;SHT30;65043;48.392;-4.472;2022-11-09T08:13:28;14.69;69.11
76239;SHT30;65043;48.392;-4.472;2022-11-09T08:15:53;14.69;69.30
76239;SHT30;65043;48.392;-4.472;2022-11-09T08:18:20;14.73;69.74
76239;SHT30;65043;48.392;-4.472;2022-11-09T08:20:47;14.75;69.65
76239;SHT30;65043;48.392;-4.472;2022-11-09T08:23:14;14.77;69.93
76239;SHT30;65043;48.392;-4.472;2022-11-09T08:25:39;14.79;69.88
76239;SHT30;65043;48.392;-4.472;2022-11-09T08:28:05;14.79;69.92
76239;SHT30;65043;48.392;-4.472;2022-11-09T08:30:31;14.79;70.22
76239;SHT30;65043;48.392;-4.472;2022-11-09T08:32:58;14.80;70.21
76239;SHT30;65043;48.392;-4.472;2022-11-09T08:35:24;14.81;70.40
76239;SHT30;65043;48.392;-4.472;2022-11-09T08:37:52;14.83;70.46
76239;SHT30;65043;48.392;-4.472;2022-11-09T08:40:21;14.87;70.41
76239;SHT30;65043;48.392;-4.472;2022-11-09T08:42:47;14.91;70.53
76239;SHT30;65043;48.392;-4.472;2022-11-09T08:45:12;14.94;70.59
76239;SHT30;65043;48.392;-4.472;2022-11-09T08:47:38;14.94;70.60
76239;SHT30;65043;48.392;-4.472;2022-11-09T08:50:05;14.96;70.48
76239;SHT30;65043;48.392;-4.472;2022-11-09T08:52:32;14.97;70.72
76239;SHT30;65043;48.392;-4.472;2022-11-09T08:54:57;15.00;70.87
76239;SHT30;65043;48.392;-4.472;2022-11-09T08:57:23;15.03;70.73
76239;SHT30;65043;48.392;-4.472;2022-11-09T08:59:49;15.06;70.52
76239;SHT30;65043;48.392;-4.472;2022-11-09T09:02:14;15.08;70.67
76239;SHT30;65043;48.392;-4.472;2022-11-09T09:04:40;15.10;70.21
76239;SHT30;65043;48.392;-4.472;2022-11-09T09:07:06;15.16;69.97
76239;SHT30;65043;48.392;-4.472;2022-11-09T09:09:32;15.18;69.95
76239;SHT30;65043;48.392;-4.472;2022-11-09T09:11:57;15.17;69.82
76239;SHT30;65043;48.392;-4.472;2022-11-09T09:14:23;15.16;69.68
76239;SHT30;65043;48.392;-4.472;2022-11-09T09:16:49;15.12;69.86
76239;SHT30;65043;48.392;-4.472;2022-11-09T09:19:14;15.16;70.10
76239;SHT30;65043;48.392;-4.472;2022-11-09T09:21:40;15.17;70.17
76239;SHT30;65043;48.392;-4.472;2022-11-09T09:24:05;15.20;70.34
76239;SHT30;65043;48.392;-4.472;2022-11-09T09:26:31;15.24;70.43
76239;SHT30;65043;48.392;-4.472;2022-11-09T09:28:57;15.30;70.51
76239;SHT30;65043;48.392;-4.472;2022-11-09T09:31:22;15.34;70.46
76239;SHT30;65043;48.392;-4.472;2022-11-09T09:33:48;15.34;70.22
76239;SHT30;65043;48.392;-4.472;2022-11-09T09:36:21;15.37;70.31
76239;SHT30;65043;48.392;-4.472;2022-11-09T09:38:51;15.40;70.32
76239;SHT30;65043;48.392;-4.472;2022-11-09T09:41:34;15.41;70.25
76239;SHT30;65043;48.392;-4.472;2022-11-09T09:44:28;15.48;69.99
76239;SHT30;65043;48.392;-4.472;2022-11-09T09:47:41;15.51;69.81
76239;SHT30;65043;48.392;-4.472;2022-11-09T09:50:02;15.52;69.92
76239;SHT30;65043;48.392;-4.472;2022-11-09T09:55:22;15.54;71.23
76239;SHT30;65043;48.392;-4.472;2022-11-09T09:57:54;15.54;71.61
76239;SHT30;65043;48.392;-4.472;2022-11-09T10:00:26;15.51;70.91
76239;SHT30;65043;48.392;-4.472;2022-11-09T10:02:52;15.52;70.39
76239;SHT30;65043;48.392;-4.472;2022-11-09T10:05:19;15.55;70.31
76239;SHT30;65043;48.392;-4.472;2022-11-09T10:15:57;15.68;68.01
76239;SHT30;65043;48.392;-4.472;2022-11-09T10:19:00;15.71;67.49
76239;SHT30;65043;48.392;-4.472;2022-11-09T10:24:49;15.73;68.18
76239;SHT30;65043;48.392;-4.472;2022-11-09T10:27:36;15.79;68.70
76239;SHT30;65043;48.392;-4.472;2022-11-09T10:30:12;15.79;68.19
76239;SHT30;65043;48.392;-4.472;2022-11-09T10:32:40;15.85;68.20
76239;SHT30;65043;48.392;-4.472;2022-11-09T10:37:43;15.83;67.90
76239;SHT30;65043;48.392;-4.472;2022-11-09T10:40:23;15.85;67.90
76239;SHT30;65043;48.392;-4.472;2022-11-09T10:42:53;15.88;67.53
76239;SHT30;65043;48.392;-4.472;2022-11-09T10:45:33;15.85;67.61
76239;SHT30;65043;48.392;-4.472;2022-11-09T10:47:59;15.86;67.70
76239;SHT30;65043;48.392;-4.472;2022-11-09T10:52:51;15.83;68.02
76239;SHT30;65043;48.392;-4.472;2022-11-09T10:55:26;15.81;67.85
76239;SHT30;65043;48.392;-4.472;2022-11-09T10:58:00;15.86;67.72
76239;SHT30;65043;48.392;-4.472;2022-11-09T11:00:26;15.92;67.15
76239;SHT30;65043;48.392;-4.472;2022-11-09T11:02:52;15.96;67.25
76239;SHT30;65043;48.392;-4.472;2022-11-09T11:05:22;15.99;66.79
76239;SHT30;65043;48.392;-4.472;2022-11-09T11:07:48;16.10;67.28
76239;SHT30;65043;48.392;-4.472;2022-11-09T11:12:51;16.10;66.41
76239;SHT30;65043;48.392;-4.472;2022-11-09T11:18:03;16.12;67.70
76239;SHT30;65043;48.392;-4.472;2022-11-09T11:20:32;16.06;67.79
76239;SHT30;65043;48.392;-4.472;2022-11-09T11:23:20;16.05;68.36
76239;SHT30;65043;48.392;-4.472;2022-11-09T11:30:50;16.16;66.21
76239;SHT30;65043;48.392;-4.472;2022-11-09T11:33:16;16.20;65.46
76239;SHT30;65043;48.392;-4.472;2022-11-09T11:35:57;16.16;65.69
76239;SHT30;65043;48.392;-4.472;2022-11-09T11:38:46;16.23;65.73
76239;SHT30;65043;48.392;-4.472;2022-11-09T11:44:16;16.40;65.66
76239;SHT30;65043;48.392;-4.472;2022-11-09T11:46:49;16.47;65.32
76239;SHT30;65043;48.392;-4.472;2022-11-09T11:58:05;16.63;64.83
76239;SHT30;65043;48.392;-4.472;2022-11-09T12:00:50;16.65;64.87
76239;SHT30;65043;48.392;-4.472;2022-11-09T12:06:20;16.64;63.87
76239;SHT30;65043;48.392;-4.472;2022-11-09T12:09:05;16.54;63.84
76239;SHT30;65043;48.392;-4.472;2022-11-09T12:12:06;16.50;64.08
76239;SHT30;65043;48.392;-4.472;2022-11-09T12:31:44;16.57;65.06
76239;SHT30;65043;48.392;-4.472;2022-11-09T12:36:55;16.71;64.44
76239;SHT30;65043;48.392;-4.472;2022-11-09T12:39:30;16.78;64.13
76239;SHT30;65043;48.392;-4.472;2022-11-09T12:42:03;16.88;63.62
76239;SHT30;65043;48.392;-4.472;2022-11-09T12:44:39;16.91;64.25
76239;SHT30;65043;48.392;-4.472;2022-11-09T12:47:13;17.02;64.02
76239;SHT30;65043;48.392;-4.472;2022-11-09T12:49:43;17.11;62.95
76239;SHT30;65043;48.392;-4.472;2022-11-09T12:52:14;17.16;62.82
76239;SHT30;65043;48.392;-4.472;2022-11-09T12:54:46;17.16;62.14
76239;SHT30;65043;48.392;-4.472;2022-11-09T12:57:23;17.29;61.88
76239;SHT30;65043;48.392;-4.472;2022-11-09T12:59:51;17.35;61.57
76239;SHT30;65043;48.392;-4.472;2022-11-09T13:02:30;17.36;61.54
76239;SHT30;65043;48.392;-4.472;2022-11-09T13:07:47;17.46;61.47
76239;SHT30;65043;48.392;-4.472;2022-11-09T13:10:31;17.30;61.11
76239;SHT30;65043;48.392;-4.472;2022-11-09T13:15:37;17.11;62.01
76239;SHT30;65043;48.392;-4.472;2022-11-09T13:20:49;17.04;62.42
76239;SHT30;65043;48.392;-4.472;2022-11-09T13:23:32;17.02;62.52
76239;SHT30;65043;48.392;-4.472;2022-11-09T13:26:00;17.01;62.68
76239;SHT30;65043;48.392;-4.472;2022-11-09T13:30:56;16.99;62.81
76239;SHT30;65043;48.392;-4.472;2022-11-09T13:33:30;17.02;63.01
76239;SHT30;65043;48.392;-4.472;2022-11-09T13:35:58;17.04;62.31
76239;SHT30;65043;48.392;-4.472;2022-11-09T13:38:36;17.01;62.06
76239;SHT30;65043;48.392;-4.472;2022-11-09T13:44:06;17.04;62.45
76239;SHT30;65043;48.392;-4.472;2022-11-09T13:46:37;17.14;61.69
76239;SHT30;65043;48.392;-4.472;2022-11-09T13:49:39;17.22;61.90
76239;SHT30;65043;48.392;-4.472;2022-11-09T13:52:43;17.30;61.39
76239;SHT30;65043;48.392;-4.472;2022-11-09T13:55:23;17.42;60.00
76239;SHT30;65043;48.392;-4.472;2022-11-09T13:57:48;17.49;60.61
76239;SHT30;65043;48.392;-4.472;2022-11-09T14:00:23;17.63;60.69
76239;SHT30;65043;48.392;-4.472;2022-11-09T14:03:01;17.78;60.67
76239;SHT30;65043;48.392;-4.472;2022-11-09T14:05:34;17.74;59.46
76239;SHT30;65043;48.392;-4.472;2022-11-09T14:08:03;17.63;59.12
76239;SHT30;65043;48.392;-4.472;2022-11-09T14:10:45;17.66;59.70
76239;SHT30;65043;48.392;-4.472;2022-11-09T14:21:43;17.30;59.50
76239;SHT30;65043;48.392;-4.472;2022-11-09T14:24:19;17.19;59.98
76239;SHT30;65043;48.392;-4.472;2022-11-09T14:27:20;17.12;59.84
76239;SHT30;65043;48.392;-4.472;2022-11-09T14:29:54;17.08;60.21
76239;SHT30;65043;48.392;-4.472;2022-11-09T14:32:27;17.12;60.38
76239;SHT30;65043;48.392;-4.472;2022-11-09T14:37:44;17.33;60.73
76239;SHT30;65043;48.392;-4.472;2022-11-09T14:42:46;17.50;59.92
76239;SHT30;65043;48.392;-4.472;2022-11-09T14:45:15;17.59;59.26
76239;SHT30;65043;48.392;-4.472;2022-11-09T14:47:44;17.59;59.18
76239;SHT30;65043;48.392;-4.472;2022-11-09T14:50:34;17.67;59.50
76239;SHT30;65043;48.392;-4.472;2022-11-09T14:53:01;17.60;59.34
76239;SHT30;65043;48.392;-4.472;2022-11-09T14:55:27;17.57;59.37
76239;SHT30;65043;48.392;-4.472;2022-11-09T14:57:54;17.66;59.59
76239;SHT30;65043;48.392;-4.472;2022-11-09T15:00:29;17.67;59.77
76239;SHT30;65043;48.392;-4.472;2022-11-09T15:02:55;17.69;59.82
76239;SHT30;65043;48.392;-4.472;2022-11-09T15:05:31;17.70;60.82
76239;SHT30;65043;48.392;-4.472;2022-11-09T15:07:57;17.74;61.24
76239;SHT30;65043;48.392;-4.472;2022-11-09T15:10:23;17.81;61.34
76239;SHT30;65043;48.392;-4.472;2022-11-09T15:12:57;17.87;61.36
76239;SHT30;65043;48.392;-4.472;2022-11-09T15:15:26;17.90;61.33
76239;SHT30;65043;48.392;-4.472;2022-11-09T15:17:52;17.94;61.50
76239;SHT30;65043;48.392;-4.472;2022-11-09T15:25:27;17.83;61.22
76239;SHT30;65043;48.392;-4.472;2022-11-09T15:27:58;17.71;61.36
76239;SHT30;65043;48.392;-4.472;2022-11-09T15:32:58;17.62;61.32
76239;SHT30;65043;48.392;-4.472;2022-11-09T15:35:25;17.62;61.05
76239;SHT30;65043;48.392;-4.472;2022-11-09T15:37:51;17.54;61.14
76239;SHT30;65043;48.392;-4.472;2022-11-09T15:40:20;17.46;61.17
76239;SHT30;65043;48.392;-4.472;2022-11-09T15:42:46;17.38;61.57
76239;SHT30;65043;48.392;-4.472;2022-11-09T15:45:18;17.35;61.91
76239;SHT30;65043;48.392;-4.472;2022-11-09T15:47:53;17.26;62.33
76239;SHT30;65043;48.392;-4.472;2022-11-09T15:50:25;17.12;62.93
76239;SHT30;65043;48.392;-4.472;2022-11-09T15:52:51;17.01;63.53
76239;SHT30;65043;48.392;-4.472;2022-11-09T15:55:20;16.94;63.93
76239;SHT30;65043;48.392;-4.472;2022-11-09T15:57:48;16.88;64.40
76239;SHT30;65043;48.392;-4.472;2022-11-09T16:00:16;16.85;65.05
76239;SHT30;65043;48.392;-4.472;2022-11-09T16:02:42;16.79;65.21
76239;SHT30;65043;48.392;-4.472;2022-11-09T16:05:07;16.75;65.50
76239;SHT30;65043;48.392;-4.472;2022-11-09T16:07:33;16.72;65.89
76239;SHT30;65043;48.392;-4.472;2022-11-09T16:09:58;16.75;66.14
76239;SHT30;65043;48.392;-4.472;2022-11-09T16:12:24;16.78;66.32
76239;SHT30;65043;48.392;-4.472;2022-11-09T16:14:49;16.74;66.62
76239;SHT30;65043;48.392;-4.472;2022-11-09T16:17:15;16.78;66.91
76239;SHT30;65043;48.392;-4.472;2022-11-09T16:19:41;16.74;66.72
76239;SHT30;65043;48.392;-4.472;2022-11-09T16:22:08;16.71;66.66
76239;SHT30;65043;48.392;-4.472;2022-11-09T16:24:34;16.61;66.64
76239;SHT30;65043;48.392;-4.472;2022-11-09T16:26:59;16.60;66.75
76239;SHT30;65043;48.392;-4.472;2022-11-09T16:29:27;16.60;66.70
76239;SHT30;65043;48.392;-4.472;2022-11-09T16:31:52;16.57;66.63
76239;SHT30;65043;48.392;-4.472;2022-11-09T16:34:18;16.57;66.70
76239;SHT30;65043;48.392;-4.472;2022-11-09T16:36:44;16.53;66.81
76239;SHT30;65043;48.392;-4.472;2022-11-09T16:39:10;16.56;66.93
76239;SHT30;65043;48.392;-4.472;2022-11-09T16:41:51;16.50;66.95
76239;SHT30;65043;48.392;-4.472;2022-11-09T16:44:20;16.48;67.18
76239;SHT30;65043;48.392;-4.472;2022-11-09T16:46:46;16.44;67.14
76239;SHT30;65043;48.392;-4.472;2022-11-09T16:49:12;16.41;67.43
76239;SHT30;65043;48.392;-4.472;2022-11-09T16:51:37;16.34;67.57
76239;SHT30;65043;48.392;-4.472;2022-11-09T16:54:03;16.37;67.56
76239;SHT30;65043;48.392;-4.472;2022-11-09T16:56:29;16.31;67.81
76239;SHT30;65043;48.392;-4.472;2022-11-09T16:58:55;16.29;67.95
76239;SHT30;65043;48.392;-4.472;2022-11-09T17:01:20;16.29;68.20
76239;SHT30;65043;48.392;-4.472;2022-11-09T17:03:46;16.29;68.35
76239;SHT30;65043;48.392;-4.472;2022-11-09T17:06:12;16.26;68.34
76239;SHT30;65043;48.392;-4.472;2022-11-09T17:08:38;16.21;68.41